KOZR/OZR METAR and TAF weather

Enter ICAO airport designator
Station Type Date Time Source
KOZR METAR 2021/09/28 16:56 UTC NOAA

KOZR 281656Z AUTO 00000KT 10SM CLR 28/19 A3005 RMK AO2 SLP176 T02810187


Station Type Date Time Source
KOZR Decoded METAR 2021/09/28 16:56 UTC NOAA

Cairns Army Air Field / Ozark, AL, United States (KOZR) 31-17N 085-43W
Sep 28, 2021 - 12:56 PM EDT / 2021.09.28 1656 UTC
Wind: Calm:0
Visibility: 10 mile(s):0
Sky conditions: clear
Temperature: 82.6 F (28.1 C)
Dew Point: 65.7 F (18.7 C)
Relative Humidity: 56%
Pressure (altimeter): 30.05 in. Hg (1017 hPa)
ob: KOZR 281656Z AUTO 00000KT 10SM CLR 28/19 A3005 RMK AO2 SLP176 T02810187
cycle: 17

Station Type Date Time Source
KOZR TAF 2021/09/28 16:44 UTC NOAA

TAF KOZR 281600Z 2816/2922 24007KT 9999 FEW050 SCT220 QNH2997INS
TEMPO 2910/2914 0800 FG SCT002 TX31/2820Z TN17/2910Z

Example: see airport list